Time;durP1;ratioP1;P1;durP2;ratioP2;P2;SDS_P1;SDS_P2;PMS_P1;PMS_P2;Temp;Humidity;BMP_temperature;BMP_pressure;BME280_temperature;BME280_humidity;BME280_pressure;Samples;Min_cycle;Max_cycle;Signal;HPM_P1;HPM_P2
2022/01/23 00:00:33;;;;;;;21.90;16.40;;;5.10;45.50;;;;;;6271942;28;20837;-56
2022/01/23 00:03:41;;;;;;;22.57;16.60;;;5.10;45.50;;;;;;6269547;28;20626;-56
2022/01/23 00:06:46;;;;;;;22.43;17.87;;;5.20;45.50;;;;;;6282348;28;20327;-56
2022/01/23 00:09:49;;;;;;;20.73;16.10;;;5.20;45.50;;;;;;6283020;28;20730;-56
2022/01/23 00:12:56;;;;;;;20.47;16.37;;;5.40;45.90;;;;;;6268457;28;20291;-56
2022/01/23 00:19:21;;;;;;;18.67;15.10;;;5.50;45.80;;;;;;6273149;28;20229;-56
2022/01/23 00:22:31;;;;;;;17.43;15.50;;;5.30;45.60;;;;;;6272478;28;25797;-55
2022/01/23 00:32:17;;;;;;;17.97;14.00;;;5.60;45.90;;;;;;6278372;28;20422;-56
2022/01/23 00:35:20;;;;;;;15.43;13.80;;;5.50;45.80;;;;;;6282410;28;20962;-56
2022/01/23 00:38:23;;;;;;;18.43;14.43;;;5.40;45.60;;;;;;6271348;28;20318;-57
2022/01/23 00:41:26;;;;;;;17.93;14.03;;;5.60;45.80;;;;;;6275922;28;20277;-56
2022/01/23 00:44:29;;;;;;;15.70;13.97;;;5.40;45.60;;;;;;6281345;28;20313;-57
2022/01/23 00:47:34;;;;;;;14.73;13.33;;;5.60;45.80;;;;;;6280823;28;20729;-56
2022/01/23 00:50:39;;;;;;;14.97;13.23;;;5.40;45.50;;;;;;6282078;28;20256;-56
2022/01/23 00:53:41;;;;;;;16.73;13.80;;;5.40;45.90;;;;;;6285369;28;20312;-56
2022/01/23 00:56:44;;;;;;;15.80;13.50;;;5.30;45.50;;;;;;6281015;28;20287;-56
2022/01/23 00:59:47;;;;;;;18.10;13.37;;;5.60;45.80;;;;;;6271974;28;20579;-56
2022/01/23 01:02:51;;;;;;;13.97;12.57;;;5.50;45.60;;;;;;6283805;28;20737;-56
2022/01/23 01:05:54;;;;;;;14.70;13.23;;;5.60;45.70;;;;;;6273569;28;20352;-56
2022/01/23 01:09:02;;;;;;;16.93;13.67;;;5.50;45.70;;;;;;6262953;28;20252;-55
2022/01/23 01:12:08;;;;;;;13.43;12.13;;;5.40;45.50;;;;;;6284855;28;20326;-55
2022/01/23 01:15:40;;;;;;;14.07;12.67;;;5.40;45.70;;;;;;6275245;28;20370;-56
2022/01/23 01:32:11;;;;;;;12.10;10.77;;;5.40;45.40;;;;;;6286011;28;20759;-56
2022/01/23 01:35:22;;;;;;;11.40;10.40;;;5.60;45.50;;;;;;6277998;28;20245;-55
2022/01/23 01:38:25;;;;;;;11.03;10.03;;;5.50;45.30;;;;;;6265667;28;20293;-57
2022/01/23 01:41:28;;;;;;;11.03;10.03;;;5.60;45.30;;;;;;6278786;28;20233;-56
2022/01/23 01:44:31;;;;;;;11.87;10.70;;;5.60;45.30;;;;;;6278598;28;20335;-56
2022/01/23 01:47:34;;;;;;;15.63;14.13;;;5.50;45.20;;;;;;6281852;28;20234;-55
2022/01/23 01:50:43;;;;;;;17.93;16.10;;;5.70;45.40;;;;;;6281265;28;20324;-57
2022/01/23 01:53:51;;;;;;;18.83;16.50;;;5.90;45.70;;;;;;6276366;28;20328;-57
2022/01/23 01:57:03;;;;;;;17.77;16.00;;;5.60;45.30;;;;;;6279599;28;20252;-57
2022/01/23 02:00:25;;;;;;;19.50;17.40;;;5.50;45.20;;;;;;6274382;28;20330;-56
2022/01/23 02:10:10;;;;;;;17.10;15.47;;;5.60;45.30;;;;;;6271505;28;20487;-55
2022/01/23 02:13:15;;;;;;;18.90;15.83;;;5.60;45.40;;;;;;6271139;28;20236;-56
2022/01/23 02:16:39;;;;;;;16.67;14.97;;;5.60;45.50;;;;;;6271468;28;20759;-55
2022/01/23 02:23:25;;;;;;;15.50;13.80;;;5.60;45.90;;;;;;6279940;28;20269;-62
2022/01/23 02:53:38;;;;;;;9.63;8.83;;;5.60;45.50;;;;;;6273970;28;20333;-55
2022/01/23 02:56:46;;;;;;;10.63;9.73;;;5.60;45.40;;;;;;6281684;28;20322;-56
2022/01/23 02:59:51;;;;;;;11.33;10.23;;;5.60;45.30;;;;;;6284683;28;20312;-57
2022/01/23 03:03:01;;;;;;;11.80;10.53;;;5.50;45.10;;;;;;6280670;28;20379;-58
2022/01/23 03:06:19;;;;;;;12.77;11.10;;;5.50;45.30;;;;;;6277017;28;20272;-57
2022/01/23 03:16:18;;;;;;;12.53;11.23;;;5.70;45.40;;;;;;6280795;28;20248;-55
2022/01/23 03:26:21;;;;;;;12.67;11.40;;;5.70;44.70;;;;;;6277752;28;20518;-57
2022/01/23 03:29:27;;;;;;;12.47;11.20;;;5.60;44.50;;;;;;6277906;28;20371;-57
2022/01/23 03:32:36;;;;;;;11.53;10.43;;;5.90;44.80;;;;;;6282928;28;20261;-55
2022/01/23 03:35:39;;;;;;;11.73;10.60;;;5.60;44.20;;;;;;6273000;28;20316;-56
2022/01/23 03:38:42;;;;;;;10.73;9.73;;;5.90;44.50;;;;;;6267812;28;20465;-56
2022/01/23 03:41:46;;;;;;;11.57;10.43;;;5.60;43.90;;;;;;6271904;28;20324;-59
2022/01/23 03:45:08;;;;;;;10.60;9.77;;;5.70;43.60;;;;;;6270989;28;20459;-56
2022/01/23 03:51:27;;;;;;;10.87;9.90;;;5.90;43.80;;;;;;6276098;28;20364;-55
2022/01/23 03:54:30;;;;;;;9.30;8.60;;;5.80;44.10;;;;;;6268630;28;20298;-57
2022/01/23 03:57:33;;;;;;;9.37;8.67;;;5.50;43.90;;;;;;6268247;28;20233;-56
2022/01/23 04:00:37;;;;;;;8.90;8.30;;;5.80;44.10;;;;;;6266329;28;20400;-55
2022/01/23 04:03:41;;;;;;;9.80;9.03;;;5.60;44.70;;;;;;6266063;28;20244;-56
2022/01/23 04:06:43;;;;;;;10.67;9.77;;;5.70;44.10;;;;;;6282640;28;20258;-55
2022/01/23 04:10:13;;;;;;;13.80;12.40;;;5.60;44.50;;;;;;6280249;28;20241;-57
2022/01/23 04:13:46;;;;;;;11.33;10.23;;;5.60;44.30;;;;;;6270943;28;20237;-55
2022/01/23 04:17:30;;;;;;;10.53;9.53;;;5.70;44.10;;;;;;6272261;28;20305;-55
2022/01/23 04:20:40;;;;;;;9.20;8.50;;;5.70;44.10;;;;;;6278072;28;20337;-56
2022/01/23 04:34:10;;;;;;;8.47;7.77;;;5.80;45.10;;;;;;6269867;28;20242;-56
2022/01/23 05:00:51;;;;;;;8.93;8.23;;;5.60;44.50;;;;;;6285088;28;20616;-57
2022/01/23 05:07:17;;;;;;;8.23;7.60;;;5.80;44.80;;;;;;6276933;28;20370;-56
2022/01/23 05:10:20;;;;;;;7.87;7.17;;;5.40;44.20;;;;;;6279634;28;20481;-56
2022/01/23 05:13:24;;;;;;;8.23;7.60;;;5.50;44.50;;;;;;6281492;28;20311;-56
2022/01/23 05:16:26;;;;;;;8.53;7.83;;;5.60;44.50;;;;;;6269070;28;20257;-57
2022/01/23 05:19:30;;;;;;;8.07;7.50;;;5.60;44.60;;;;;;6273283;28;20366;-55
2022/01/23 05:22:38;;;;;;;8.67;7.97;;;5.40;44.80;;;;;;6281466;28;20241;-57
2022/01/23 05:25:41;;;;;;;8.83;8.00;;;5.70;44.50;;;;;;6288318;28;20320;-55
2022/01/23 05:28:44;;;;;;;7.53;7.03;;;5.50;44.40;;;;;;6280738;28;20245;-56
2022/01/23 05:31:50;;;;;;;8.40;7.60;;;5.50;44.30;;;;;;6286072;28;20224;-55
2022/01/23 05:34:53;;;;;;;8.63;7.83;;;5.50;44.30;;;;;;6276093;28;20239;-56
2022/01/23 05:37:57;;;;;;;8.20;7.60;;;5.60;44.40;;;;;;6279129;28;20236;-56
2022/01/23 05:41:01;;;;;;;8.60;8.00;;;5.50;44.40;;;;;;6294771;28;20285;-57
2022/01/23 05:44:04;;;;;;;9.00;8.33;;;5.50;44.40;;;;;;6284041;28;20237;-57
2022/01/23 05:47:10;;;;;;;9.10;8.40;;;5.60;44.50;;;;;;6284851;28;20322;-56
2022/01/23 05:50:12;;;;;;;9.83;9.03;;;5.60;44.50;;;;;;6280831;28;20781;-55
2022/01/23 05:53:16;;;;;;;9.80;8.80;;;5.40;44.30;;;;;;6280686;28;20380;-56
2022/01/23 05:56:19;;;;;;;10.40;9.50;;;5.70;44.60;;;;;;6279435;28;20338;-56
2022/01/23 05:59:22;;;;;;;10.20;9.40;;;5.40;44.30;;;;;;6285012;28;20271;-56
2022/01/23 06:02:25;;;;;;;9.70;8.90;;;5.50;44.80;;;;;;6278167;28;20395;-56
2022/01/23 06:05:28;;;;;;;10.03;9.03;;;5.60;44.50;;;;;;6277453;28;20237;-56
2022/01/23 06:08:32;;;;;;;9.90;9.07;;;5.50;44.30;;;;;;6282009;28;20229;-56
2022/01/23 06:11:35;;;;;;;9.97;9.07;;;5.60;44.40;;;;;;6282827;28;20348;-57
2022/01/23 06:14:37;;;;;;;10.77;9.50;;;5.70;44.50;;;;;;6284066;28;20289;-53
2022/01/23 06:17:40;;;;;;;10.23;9.27;;;5.80;44.60;;;;;;6283183;28;20225;-54
2022/01/23 06:20:43;;;;;;;10.93;9.80;;;5.50;44.40;;;;;;6276523;28;20243;-55
2022/01/23 06:23:54;;;;;;;11.57;10.47;;;5.30;44.10;;;;;;6285644;28;20241;-55
2022/01/23 06:26:59;;;;;;;11.23;10.23;;;5.60;44.30;;;;;;6279763;28;20636;-56
2022/01/23 06:30:02;;;;;;;11.77;10.77;;;5.70;44.50;;;;;;6280111;28;20307;-56
2022/01/23 06:33:05;;;;;;;11.83;10.53;;;5.60;44.40;;;;;;6272164;28;20649;-56
2022/01/23 06:36:08;;;;;;;11.40;10.33;;;5.70;44.50;;;;;;6276301;28;20606;-55
2022/01/23 06:39:13;;;;;;;12.07;10.73;;;5.60;44.70;;;;;;6279707;28;20573;-56
2022/01/23 06:42:22;;;;;;;11.07;10.00;;;5.60;44.60;;;;;;6274623;28;20265;-55
2022/01/23 06:45:25;;;;;;;10.90;9.90;;;5.50;44.30;;;;;;6275473;28;20883;-55
2022/01/23 06:48:27;;;;;;;11.77;10.57;;;5.60;44.50;;;;;;6281893;28;20879;-56
2022/01/23 06:51:30;;;;;;;11.07;9.37;;;5.70;44.70;;;;;;6278696;28;20262;-56
2022/01/23 06:54:34;;;;;;;11.57;10.43;;;5.60;44.40;;;;;;6278629;28;20753;-56
2022/01/23 06:57:37;;;;;;;11.23;10.23;;;5.70;44.40;;;;;;6280773;28;20254;-54
2022/01/23 07:00:39;;;;;;;11.63;10.43;;;5.60;44.40;;;;;;6281370;28;20817;-57
2022/01/23 07:03:42;;;;;;;11.73;10.60;;;5.70;44.70;;;;;;6271329;28;20238;-56
2022/01/23 07:06:45;;;;;;;11.50;10.57;;;5.60;44.60;;;;;;6275849;28;20232;-56
2022/01/23 07:09:49;;;;;;;12.37;10.27;;;5.80;44.70;;;;;;6278518;28;20251;-56
2022/01/23 07:12:52;;;;;;;10.87;9.77;;;5.70;44.50;;;;;;6278468;28;20479;-56
2022/01/23 07:15:55;;;;;;;11.00;10.00;;;5.70;44.50;;;;;;6275346;28;20260;-57
2022/01/23 07:18:58;;;;;;;10.97;10.00;;;5.70;44.60;;;;;;6282220;28;20237;-56
2022/01/23 07:22:01;;;;;;;11.07;10.07;;;5.90;44.70;;;;;;6277303;28;20229;-55
2022/01/23 07:25:06;;;;;;;10.90;9.90;;;5.60;44.50;;;;;;6280352;28;20383;-56
2022/01/23 07:28:13;;;;;;;10.90;9.90;;;5.70;44.80;;;;;;6280757;28;20374;-57
2022/01/23 07:31:31;;;;;;;10.33;9.43;;;5.80;44.60;;;;;;6279048;28;20338;-57
2022/01/23 07:34:34;;;;;;;11.03;10.03;;;5.70;44.70;;;;;;6263867;28;20334;-55
2022/01/23 07:37:37;;;;;;;11.00;10.10;;;5.50;44.30;;;;;;6276746;28;20718;-56
2022/01/23 07:40:41;;;;;;;10.93;9.93;;;5.60;44.50;;;;;;6268996;28;20229;-56
2022/01/23 07:43:43;;;;;;;10.87;9.87;;;5.60;44.50;;;;;;6266382;28;20279;-58
2022/01/23 07:46:47;;;;;;;10.63;9.80;;;5.80;44.60;;;;;;6274711;28;20233;-57
2022/01/23 07:49:50;;;;;;;10.13;9.20;;;5.70;44.60;;;;;;6277683;28;20225;-59
2022/01/23 07:52:53;;;;;;;9.47;8.70;;;6.00;44.80;;;;;;6279361;28;20350;-57
2022/01/23 07:55:57;;;;;;;10.33;9.53;;;5.70;44.50;;;;;;6279580;28;20757;-58
2022/01/23 07:59:00;;;;;;;10.23;9.30;;;5.70;44.30;;;;;;6272066;28;20474;-58
2022/01/23 08:02:03;;;;;;;10.33;9.43;;;5.90;44.50;;;;;;6286867;28;20319;-57
2022/01/23 08:05:09;;;;;;;9.73;8.93;;;5.80;44.50;;;;;;6282806;28;20737;-58
2022/01/23 08:08:12;;;;;;;10.40;9.50;;;5.80;44.40;;;;;;6277367;28;20781;-57
2022/01/23 08:11:16;;;;;;;12.40;11.20;;;5.90;44.50;;;;;;6277423;28;20315;-58
2022/01/23 08:14:19;;;;;;;9.80;9.00;;;5.90;44.40;;;;;;6279144;28;20337;-57
2022/01/23 08:17:24;;;;;;;10.50;9.63;;;6.20;44.60;;;;;;6275840;28;20238;-57
2022/01/23 08:20:27;;;;;;;9.27;8.47;;;6.00;44.30;;;;;;6285168;28;20897;-55
2022/01/23 08:23:29;;;;;;;8.37;7.77;;;6.00;44.40;;;;;;6278620;28;20283;-59
2022/01/23 08:26:34;;;;;;;9.20;8.40;;;6.10;44.30;;;;;;6280884;28;20238;-57
2022/01/23 08:29:36;;;;;;;8.33;7.63;;;5.70;43.60;;;;;;6279318;28;20240;-57
2022/01/23 08:32:39;;;;;;;8.67;7.97;;;6.50;44.20;;;;;;6283039;28;20301;-57
2022/01/23 08:35:44;;;;;;;8.37;7.70;;;6.50;44.00;;;;;;6282212;28;20387;-56
2022/01/23 08:38:48;;;;;;;8.57;7.90;;;6.40;43.10;;;;;;6286955;28;20255;-57
2022/01/23 08:41:53;;;;;;;9.07;8.37;;;6.30;43.00;;;;;;6284811;28;20236;-57
2022/01/23 08:44:55;;;;;;;8.03;7.50;;;6.30;43.60;;;;;;6278381;28;20268;-56
2022/01/23 08:47:58;;;;;;;8.90;8.20;;;6.50;43.60;;;;;;6279417;28;20267;-55
2022/01/23 08:51:01;;;;;;;8.50;7.90;;;6.40;42.90;;;;;;6282005;28;20655;-58
2022/01/23 08:54:04;;;;;;;8.63;7.83;;;6.50;42.80;;;;;;6278858;28;20716;-57
2022/01/23 08:57:08;;;;;;;8.27;7.57;;;6.40;42.70;;;;;;6283032;28;20312;-56
2022/01/23 09:00:13;;;;;;;9.00;8.30;;;6.60;43.50;;;;;;6275782;28;20756;-57
2022/01/23 09:03:17;;;;;;;9.40;8.60;;;6.40;43.50;;;;;;6275856;28;20607;-57
2022/01/23 09:06:20;;;;;;;9.90;9.10;;;6.40;43.30;;;;;;6275594;28;20237;-57
2022/01/23 09:09:24;;;;;;;10.07;9.27;;;6.40;42.70;;;;;;6281193;28;20226;-57
2022/01/23 09:12:42;;;;;;;10.37;9.37;;;6.40;42.70;;;;;;6278656;28;20267;-57
2022/01/23 09:15:45;;;;;;;10.90;9.90;;;6.70;43.00;;;;;;6275450;28;20520;-58
2022/01/23 09:18:48;;;;;;;11.37;10.27;;;6.60;42.90;;;;;;6281807;28;20315;-57
2022/01/23 09:21:52;;;;;;;10.33;9.53;;;6.90;42.40;;;;;;6282723;28;20833;-56
2022/01/23 09:24:55;;;;;;;10.73;9.73;;;6.80;42.10;;;;;;6275145;28;20234;-58
2022/01/23 09:28:03;;;;;;;11.30;10.13;;;6.80;42.20;;;;;;6281983;28;20363;-57
2022/01/23 09:31:06;;;;;;;11.73;10.43;;;6.70;42.30;;;;;;6279804;28;20328;-56
2022/01/23 09:34:13;;;;;;;11.53;10.60;;;6.70;41.50;;;;;;6275223;28;20421;-55
2022/01/23 09:37:17;;;;;;;11.13;10.13;;;6.70;41.50;;;;;;6285533;28;20316;-56
2022/01/23 09:40:20;;;;;;;12.40;11.13;;;6.80;42.20;;;;;;6280334;28;20287;-58
2022/01/23 09:43:26;;;;;;;12.67;11.57;;;6.80;41.70;;;;;;6282283;28;20341;-58
2022/01/23 09:46:29;;;;;;;11.47;10.57;;;6.80;41.70;;;;;;6279204;28;20370;-57
2022/01/23 09:49:32;;;;;;;10.57;9.73;;;6.80;41.60;;;;;;6278498;28;20229;-57
2022/01/23 09:52:35;;;;;;;10.10;9.20;;;6.90;41.70;;;;;;6278814;28;20402;-58
2022/01/23 09:55:40;;;;;;;9.50;8.83;;;6.90;41.70;;;;;;6280658;28;20316;-58
2022/01/23 09:58:44;;;;;;;11.60;10.40;;;7.20;42.00;;;;;;6278779;28;20602;-56
2022/01/23 10:01:53;;;;;;;12.77;11.43;;;6.90;41.70;;;;;;6275593;28;20295;-56
2022/01/23 10:04:57;;;;;;;12.83;11.73;;;7.10;41.80;;;;;;6282448;28;20245;-58
2022/01/23 10:08:01;;;;;;;12.40;11.30;;;6.80;41.40;;;;;;6285789;28;20311;-58
2022/01/23 10:11:09;;;;;;;13.80;12.40;;;6.90;41.70;;;;;;6282712;28;20328;-58
2022/01/23 10:14:14;;;;;;;12.03;10.97;;;7.00;41.80;;;;;;6275395;28;20314;-56
2022/01/23 10:17:17;;;;;;;10.90;10.00;;;7.10;41.90;;;;;;6278865;28;20320;-56
2022/01/23 10:20:20;;;;;;;10.83;10.00;;;7.30;40.90;;;;;;6282604;28;20436;-57
2022/01/23 10:23:22;;;;;;;10.20;9.40;;;7.10;41.40;;;;;;6281837;28;20361;-56
2022/01/23 10:26:40;;;;;;;9.30;8.50;;;7.00;41.70;;;;;;6276874;28;20309;-57
2022/01/23 10:29:46;;;;;;;8.90;8.20;;;6.90;41.70;;;;;;6279697;28;20714;-57
2022/01/23 10:32:57;;;;;;;9.17;8.47;;;6.90;41.70;;;;;;6277502;28;20712;-57
2022/01/23 10:36:04;;;;;;;9.03;8.13;;;6.90;41.80;;;;;;6284692;28;20349;-57
2022/01/23 10:39:07;;;;;;;8.47;7.77;;;6.90;41.70;;;;;;6279759;28;20238;-56
2022/01/23 10:42:28;;;;;;;7.20;6.80;;;7.10;41.90;;;;;;6275966;28;20320;-58
2022/01/23 10:48:56;;;;;;;6.97;6.67;;;7.00;41.00;;;;;;6280385;28;20575;-56
2022/01/23 10:51:59;;;;;;;6.80;6.43;;;7.00;41.00;;;;;;6284433;28;20233;-55
2022/01/23 10:55:03;;;;;;;7.83;7.33;;;7.10;41.40;;;;;;6277340;28;20430;-57
2022/01/23 10:58:17;;;;;;;8.83;7.13;;;7.20;40.30;;;;;;6272106;28;20283;-57
2022/01/23 11:01:21;;;;;;;7.87;6.67;;;7.20;39.10;;;;;;6277394;28;20305;-58
2022/01/23 11:04:24;;;;;;;8.33;7.77;;;7.30;38.40;;;;;;6276267;28;20261;-57
2022/01/23 11:07:30;;;;;;;8.57;7.87;;;7.40;38.10;;;;;;6278349;28;20575;-56
2022/01/23 11:10:33;;;;;;;9.60;7.60;;;7.30;35.90;;;;;;6280166;28;21062;-56
2022/01/23 11:20:32;;;;;;;6.77;6.27;;;7.20;37.60;;;;;;6277469;28;20309;-56
2022/01/23 11:23:36;;;;;;;7.00;6.50;;;7.10;39.50;;;;;;6279320;28;20237;-56
2022/01/23 11:26:39;;;;;;;8.47;7.77;;;7.10;40.60;;;;;;6276916;28;20263;-58
2022/01/23 11:29:57;;;;;;;7.63;7.17;;;7.10;41.00;;;;;;6278000;28;20229;-57
2022/01/23 11:33:02;;;;;;;7.40;6.90;;;7.20;40.90;;;;;;6281084;28;20766;-58
2022/01/23 11:36:05;;;;;;;7.50;7.03;;;7.20;39.90;;;;;;6283541;28;20252;-57
2022/01/23 11:39:13;;;;;;;7.70;7.10;;;7.30;39.90;;;;;;6286008;28;20710;-57
2022/01/23 11:55:46;;;;;;;5.40;5.20;;;7.40;38.90;;;;;;6275007;28;20291;-56
2022/01/23 11:58:52;;;;;;;6.37;5.93;;;7.40;39.00;;;;;;6283531;28;20245;-58
2022/01/23 12:02:24;;;;;;;6.10;5.70;;;7.40;39.50;;;;;;6283816;28;20259;-58
2022/01/23 12:05:29;;;;;;;7.30;6.70;;;7.50;38.90;;;;;;6278272;28;20229;-58
2022/01/23 12:08:35;;;;;;;7.03;6.43;;;7.50;37.60;;;;;;6283518;28;20624;-56
2022/01/23 12:11:42;;;;;;;6.70;6.30;;;7.50;36.00;;;;;;6283337;28;20336;-56
2022/01/23 12:18:13;;;;;;;6.63;6.20;;;7.60;36.90;;;;;;6283918;28;20237;-58
2022/01/23 12:21:29;;;;;;;6.80;6.40;;;7.70;36.70;;;;;;6274460;28;20427;-57
2022/01/23 12:24:48;;;;;;;6.30;6.00;;;7.60;35.60;;;;;;6277849;28;20232;-57
2022/01/23 12:28:21;;;;;;;6.63;6.33;;;7.60;35.90;;;;;;6281153;28;20233;-59
2022/01/23 12:31:26;;;;;;;6.90;6.50;;;7.60;36.40;;;;;;6275673;28;20732;-58
2022/01/23 12:34:48;;;;;;;6.90;6.60;;;7.50;36.50;;;;;;6282144;28;20407;-56
2022/01/23 12:38:10;;;;;;;6.33;5.93;;;7.50;37.40;;;;;;6278124;28;20312;-56
2022/01/23 12:41:23;;;;;;;6.70;6.40;;;7.50;38.30;;;;;;6271002;28;20317;-57
2022/01/23 12:44:37;;;;;;;7.13;6.73;;;7.50;38.40;;;;;;6271204;28;20269;-56
2022/01/23 12:47:40;;;;;;;7.63;7.23;;;7.40;38.70;;;;;;6276822;28;20267;-58
2022/01/23 12:50:47;;;;;;;6.37;6.07;;;7.40;39.10;;;;;;6280534;28;20229;-56
2022/01/23 12:54:16;;;;;;;6.90;6.30;;;7.30;39.90;;;;;;6279985;28;20905;-56
2022/01/23 12:57:22;;;;;;;4.90;4.80;;;7.40;39.70;;;;;;6279850;28;20865;-56
2022/01/23 13:00:28;;;;;;;4.40;4.30;;;7.40;39.80;;;;;;6283734;28;20332;-58
2022/01/23 13:03:31;;;;;;;4.67;4.47;;;7.40;40.00;;;;;;6281391;28;20268;-56
2022/01/23 13:06:42;;;;;;;4.57;4.47;;;7.40;40.20;;;;;;6282827;28;20580;-56
2022/01/23 13:09:58;;;;;;;4.63;4.30;;;7.40;40.50;;;;;;6286591;28;20233;-57
2022/01/23 13:13:16;;;;;;;4.50;4.30;;;7.30;39.90;;;;;;6267605;28;20374;-55
2022/01/23 13:16:32;;;;;;;4.43;4.23;;;7.40;40.50;;;;;;6283561;28;20770;-57
2022/01/23 13:26:22;;;;;;;4.97;4.77;;;7.60;41.10;;;;;;6286725;28;20226;-60
2022/01/23 13:30:13;;;;;;;5.63;5.33;;;7.30;42.10;;;;;;6280955;28;20435;-57
2022/01/23 13:33:20;;;;;;;5.43;5.23;;;7.20;42.00;;;;;;6278888;28;20725;-57
2022/01/23 13:36:23;;;;;;;5.03;4.80;;;7.30;42.10;;;;;;6283358;28;20245;-56
2022/01/23 13:39:29;;;;;;;4.23;4.13;;;7.30;41.50;;;;;;6274531;28;20370;-57
2022/01/23 13:53:13;;;;;;;5.23;4.93;;;7.30;42.10;;;;;;6275711;27;20596;-58
2022/01/23 13:59:47;;;;;;;4.63;4.40;;;7.30;40.60;;;;;;6264290;28;20436;-57
2022/01/23 14:02:50;;;;;;;5.17;4.97;;;7.30;39.90;;;;;;6266284;28;20507;-58
2022/01/23 14:05:53;;;;;;;4.80;4.70;;;7.30;39.90;;;;;;6266250;28;20238;-57
2022/01/23 14:09:07;;;;;;;4.90;4.70;;;7.30;40.10;;;;;;6275922;28;20269;-58
2022/01/23 14:12:12;;;;;;;5.40;5.23;;;7.20;40.00;;;;;;6279344;28;20323;-57
2022/01/23 14:15:17;;;;;;;5.40;5.20;;;7.30;40.30;;;;;;6288710;28;20248;-55
2022/01/23 14:18:24;;;;;;;6.07;5.67;;;7.30;40.50;;;;;;6301419;28;20327;-56
2022/01/23 14:21:26;;;;;;;5.60;5.40;;;7.30;40.50;;;;;;6296474;28;20805;-57
2022/01/23 14:24:32;;;;;;;6.70;6.30;;;7.30;40.90;;;;;;6302479;28;20250;-61
2022/01/23 14:27:35;;;;;;;5.70;5.40;;;7.20;41.00;;;;;;6302993;28;20232;-56
2022/01/23 14:30:44;;;;;;;5.60;5.37;;;7.30;40.50;;;;;;6302001;28;20228;-56
2022/01/23 14:33:50;;;;;;;4.60;4.50;;;7.30;39.70;;;;;;6301904;28;20247;-56
2022/01/23 14:37:06;;;;;;;5.10;4.90;;;7.30;39.60;;;;;;6301244;28;20225;-55
2022/01/23 14:40:15;;;;;;;5.13;4.90;;;7.30;39.90;;;;;;6298259;28;20240;-56
2022/01/23 14:43:18;;;;;;;4.37;4.27;;;7.30;40.00;;;;;;6297606;28;20283;-56
2022/01/23 14:46:21;;;;;;;5.57;5.27;;;7.20;41.00;;;;;;6295335;28;20507;-58
2022/01/23 14:49:27;;;;;;;5.37;5.07;;;7.20;40.80;;;;;;6295862;28;20747;-57
2022/01/23 14:52:31;;;;;;;5.23;4.83;;;7.20;40.90;;;;;;6297091;28;20237;-57
2022/01/23 14:55:36;;;;;;;5.10;4.80;;;7.10;40.80;;;;;;6296209;28;20772;-55
2022/01/23 14:58:39;;;;;;;4.83;4.63;;;7.10;41.10;;;;;;6292944;28;20702;-58
2022/01/23 15:01:44;;;;;;;4.33;4.23;;;7.10;41.00;;;;;;6295480;28;20228;-56
2022/01/23 15:04:48;;;;;;;4.33;4.23;;;7.10;40.70;;;;;;6280373;28;20579;-56
2022/01/23 15:07:52;;;;;;;4.40;4.20;;;7.20;40.90;;;;;;6285773;28;20312;-57
2022/01/23 15:10:59;;;;;;;4.17;4.07;;;7.10;40.50;;;;;;6283582;28;20229;-56
2022/01/23 15:14:02;;;;;;;3.80;3.70;;;7.10;40.50;;;;;;6280998;28;20245;-57
2022/01/23 15:17:06;;;;;;;3.90;3.80;;;7.10;39.40;;;;;;6285277;28;20238;-58
2022/01/23 15:20:11;;;;;;;3.73;3.63;;;7.00;38.90;;;;;;6283093;28;20236;-57
2022/01/23 15:23:15;;;;;;;3.70;3.60;;;7.10;38.50;;;;;;6284797;28;20332;-57
2022/01/23 15:26:19;;;;;;;3.90;3.80;;;7.10;38.50;;;;;;6284296;28;20322;-57
2022/01/23 15:29:22;;;;;;;4.30;4.03;;;7.10;38.60;;;;;;6282806;28;20243;-57
2022/01/23 15:32:24;;;;;;;4.20;3.90;;;7.00;38.80;;;;;;6279446;28;20337;-58
2022/01/23 15:35:27;;;;;;;4.80;4.60;;;7.00;39.00;;;;;;6276737;28;20280;-57
2022/01/23 15:38:30;;;;;;;4.00;3.83;;;7.10;39.40;;;;;;6281256;28;20677;-58
2022/01/23 15:41:36;;;;;;;4.53;4.13;;;6.90;40.30;;;;;;6281132;28;20229;-56
2022/01/23 15:44:39;;;;;;;4.47;4.20;;;7.00;40.70;;;;;;6273966;28;20638;-56
2022/01/23 15:47:42;;;;;;;3.97;3.87;;;6.90;40.60;;;;;;6279365;28;20241;-58
2022/01/23 15:50:45;;;;;;;4.40;4.20;;;6.90;41.10;;;;;;6282499;28;20304;-56
2022/01/23 15:53:48;;;;;;;5.03;4.70;;;6.90;41.60;;;;;;6276769;28;20686;-58
2022/01/23 15:56:54;;;;;;;5.17;4.90;;;6.90;41.70;;;;;;6283223;28;20233;-58
2022/01/23 15:59:56;;;;;;;4.43;4.23;;;6.90;41.70;;;;;;6282703;28;20280;-56
2022/01/23 16:02:59;;;;;;;4.80;4.60;;;6.90;41.80;;;;;;6269305;28;20548;-52
2022/01/23 16:06:02;;;;;;;4.20;4.10;;;6.90;41.70;;;;;;6282307;28;20233;-57
2022/01/23 16:09:05;;;;;;;4.27;4.07;;;6.90;41.80;;;;;;6277850;28;20733;-57
2022/01/23 16:12:10;;;;;;;3.87;3.77;;;6.80;42.40;;;;;;6256698;28;20234;-58
2022/01/23 16:15:33;;;;;;;3.80;3.70;;;6.90;41.70;;;;;;6250009;28;20234;-57
2022/01/23 16:18:36;;;;;;;4.07;3.87;;;6.80;41.70;;;;;;6243445;28;20229;-57
2022/01/23 16:21:39;;;;;;;4.10;3.80;;;6.90;41.80;;;;;;6267687;28;20675;-57
2022/01/23 16:24:41;;;;;;;3.70;3.60;;;6.80;41.70;;;;;;6276549;28;20229;-56
2022/01/23 16:27:45;;;;;;;3.50;3.43;;;6.80;41.70;;;;;;6274475;28;20233;-56
2022/01/23 16:30:54;;;;;;;3.70;3.40;;;6.70;41.60;;;;;;6281826;28;20431;-56
2022/01/23 16:33:57;;;;;;;3.73;3.63;;;6.80;42.00;;;;;;6279103;28;20245;-57
2022/01/23 16:37:00;;;;;;;3.60;3.50;;;6.70;41.90;;;;;;6281394;28;20229;-57
2022/01/23 16:40:04;;;;;;;3.90;3.70;;;6.80;42.20;;;;;;6282627;28;20460;-59
2022/01/23 16:43:09;;;;;;;3.60;3.60;;;6.70;42.40;;;;;;6274560;28;20379;-59
2022/01/23 16:46:12;;;;;;;3.90;3.80;;;6.70;42.50;;;;;;6282317;28;20305;-56
2022/01/23 16:49:15;;;;;;;3.90;3.80;;;6.70;42.70;;;;;;6283229;28;20725;-58
2022/01/23 16:52:17;;;;;;;3.97;3.90;;;6.70;42.70;;;;;;6282684;28;20252;-59
2022/01/23 16:55:21;;;;;;;4.53;4.43;;;6.80;43.40;;;;;;6281144;28;20352;-57
2022/01/23 16:58:25;;;;;;;4.77;4.40;;;6.60;43.20;;;;;;6282749;28;20324;-58
2022/01/23 17:01:28;;;;;;;4.30;4.10;;;6.70;43.20;;;;;;6280983;28;20259;-56
2022/01/23 17:04:33;;;;;;;3.77;3.67;;;6.70;43.60;;;;;;6282558;28;20818;-58
2022/01/23 17:07:36;;;;;;;5.13;4.83;;;6.70;43.40;;;;;;6279321;28;20309;-57
2022/01/23 17:10:39;;;;;;;4.33;4.20;;;6.70;43.70;;;;;;6275900;28;20229;-56
2022/01/23 17:13:44;;;;;;;4.30;4.20;;;6.70;43.80;;;;;;6282427;28;20726;-57
2022/01/23 17:16:47;;;;;;;4.10;4.00;;;6.60;43.80;;;;;;6276747;28;20301;-57
2022/01/23 17:19:50;;;;;;;4.07;3.97;;;6.50;43.80;;;;;;6278022;28;20319;-57
2022/01/23 17:22:53;;;;;;;4.53;4.43;;;6.60;43.90;;;;;;6281582;28;20237;-57
2022/01/23 17:25:56;;;;;;;4.73;4.60;;;6.70;43.90;;;;;;6276554;28;20225;-57
2022/01/23 17:29:00;;;;;;;5.03;4.73;;;6.60;43.90;;;;;;6275066;28;20226;-57
2022/01/23 17:32:04;;;;;;;4.93;4.80;;;6.70;44.10;;;;;;6276037;28;20337;-57
2022/01/23 17:35:07;;;;;;;6.30;5.90;;;6.60;44.00;;;;;;6278515;28;20769;-59
2022/01/23 17:38:10;;;;;;;5.10;5.00;;;6.60;44.00;;;;;;6280494;28;20264;-58
2022/01/23 17:41:13;;;;;;;6.23;5.93;;;6.70;44.30;;;;;;6282423;28;20846;-57
2022/01/23 17:44:17;;;;;;;4.80;4.60;;;6.70;44.10;;;;;;6275231;28;20737;-56
2022/01/23 17:47:32;;;;;;;5.60;5.30;;;6.60;44.10;;;;;;6280561;28;20260;-56
2022/01/23 17:50:42;;;;;;;5.20;5.00;;;6.60;44.20;;;;;;6279120;28;20240;-57
2022/01/23 17:53:46;;;;;;;5.80;5.43;;;6.70;44.30;;;;;;6277806;28;20240;-61
2022/01/23 17:56:50;;;;;;;5.37;5.20;;;6.70;44.30;;;;;;6274751;28;20233;-55
2022/01/23 17:59:54;;;;;;;5.63;5.23;;;6.60;44.10;;;;;;6282174;28;20233;-57
2022/01/23 18:02:57;;;;;;;6.03;5.77;;;6.60;44.20;;;;;;6272815;28;20316;-56
2022/01/23 18:06:01;;;;;;;7.37;6.70;;;6.60;44.20;;;;;;6280191;28;20273;-56
2022/01/23 18:09:07;;;;;;;8.23;7.57;;;6.60;44.20;;;;;;6272618;28;20805;-58
2022/01/23 18:12:10;;;;;;;7.33;6.83;;;6.70;44.40;;;;;;6280395;28;20237;-56
2022/01/23 18:15:14;;;;;;;7.50;6.90;;;6.60;44.40;;;;;;6277117;28;20364;-56
2022/01/23 18:18:18;;;;;;;7.30;6.80;;;6.60;44.50;;;;;;6282015;28;20886;-56
2022/01/23 18:21:20;;;;;;;7.07;6.57;;;6.60;44.50;;;;;;6282499;28;20325;-56
2022/01/23 18:24:23;;;;;;;7.50;7.00;;;6.60;44.60;;;;;;6280913;28;20312;-58
2022/01/23 18:27:29;;;;;;;6.97;6.50;;;6.60;44.60;;;;;;6274378;28;20241;-57
2022/01/23 18:30:33;;;;;;;6.63;6.23;;;6.60;44.70;;;;;;6270953;28;20477;-56
2022/01/23 18:33:56;;;;;;;7.10;6.70;;;6.60;44.80;;;;;;6276295;28;20250;-57
2022/01/23 18:36:58;;;;;;;7.20;6.80;;;6.70;44.60;;;;;;6274471;28;20383;-57
2022/01/23 18:40:04;;;;;;;7.67;7.07;;;6.60;44.10;;;;;;6281122;28;20328;-57
2022/01/23 18:43:26;;;;;;;6.77;6.47;;;6.60;44.20;;;;;;6283748;28;20380;-57
2022/01/23 18:46:31;;;;;;;7.03;6.57;;;6.70;44.40;;;;;;6286226;28;20245;-57
2022/01/23 18:49:34;;;;;;;6.97;6.47;;;6.50;44.30;;;;;;6289363;28;20243;-56
2022/01/23 18:52:44;;;;;;;8.10;7.47;;;6.50;44.20;;;;;;6285207;28;20483;-56
2022/01/23 18:55:49;;;;;;;7.03;6.63;;;6.60;44.30;;;;;;6281608;28;20256;-56